Time;durP1;ratioP1;P1;durP2;ratioP2;P2;SDS_P1;SDS_P2;PMS_P1;PMS_P2;Temp;Humidity;BMP_temperature;BMP_pressure;BME280_temperature;BME280_humidity;BME280_pressure;Samples;Min_cycle;Max_cycle;Signal;HPM_P1;HPM_P2
2023/03/03 00:02:50;;;;;;;63.95;23.77;;;3.10;99.90;;;;;;20855417;28;20034;-79
2023/03/03 00:12:51;;;;;;;63.00;23.58;;;3.20;99.90;;;;;;20856006;28;20025;-80
2023/03/03 00:22:54;;;;;;;81.03;27.92;;;3.00;99.90;;;;;;20845313;28;20459;-79
2023/03/03 00:32:55;;;;;;;69.05;24.27;;;2.70;99.90;;;;;;20835492;28;20037;-80
2023/03/03 00:42:58;;;;;;;61.65;22.65;;;2.80;99.90;;;;;;20834849;28;20025;-80
2023/03/03 00:53:11;;;;;;;76.55;27.50;;;2.80;99.90;;;;;;20814659;28;20508;-80
2023/03/03 01:03:23;;;;;;;73.38;26.00;;;2.90;99.90;;;;;;20828421;28;20041;-80
2023/03/03 01:13:29;;;;;;;63.92;25.52;;;2.90;99.90;;;;;;20813903;28;20033;-80
2023/03/03 01:23:30;;;;;;;76.57;26.48;;;2.80;99.90;;;;;;20815753;28;20443;-80
2023/03/03 01:33:32;;;;;;;78.38;26.58;;;2.80;99.90;;;;;;20832428;28;20056;-80
2023/03/03 01:43:33;;;;;;;73.97;25.73;;;2.80;99.90;;;;;;20834932;28;20476;-80
2023/03/03 01:53:42;;;;;;;74.65;27.52;;;2.80;99.90;;;;;;20848190;28;20483;-80
2023/03/03 02:03:42;;;;;;;65.43;24.55;;;2.90;99.90;;;;;;20843188;28;20038;-80
2023/03/03 02:13:43;;;;;;;79.47;26.83;;;2.90;99.90;;;;;;20846082;28;20025;-80
2023/03/03 02:23:50;;;;;;;66.15;25.05;;;2.80;99.90;;;;;;20824648;28;20037;-80
2023/03/03 02:33:52;;;;;;;65.10;24.85;;;2.70;99.90;;;;;;20825648;28;20120;-80
2023/03/03 02:43:55;;;;;;;78.18;27.92;;;2.70;99.90;;;;;;20841565;28;20060;-80
2023/03/03 02:53:58;;;;;;;77.40;26.08;;;2.70;99.90;;;;;;20838722;28;20037;-81
2023/03/03 03:04:14;;;;;;;74.22;27.10;;;2.70;99.90;;;;;;20823182;28;20033;-79
2023/03/03 03:14:18;;;;;;;66.75;26.27;;;2.70;99.90;;;;;;20820961;28;20040;-80
2023/03/03 03:24:19;;;;;;;72.38;24.58;;;2.70;99.90;;;;;;20802954;28;20040;-81
2023/03/03 03:34:26;;;;;;;74.80;27.05;;;2.80;99.90;;;;;;20820279;28;20060;-80
2023/03/03 03:44:29;;;;;;;66.72;26.98;;;2.70;99.90;;;;;;20852957;28;20033;-79
2023/03/03 03:54:30;;;;;;;72.25;27.02;;;2.60;99.90;;;;;;20901364;28;20029;-80
2023/03/03 04:04:31;;;;;;;72.28;27.92;;;2.60;99.90;;;;;;20800384;28;20046;-80
2023/03/03 04:14:32;;;;;;;85.35;28.02;;;2.60;99.90;;;;;;20815998;28;20065;-80
2023/03/03 04:24:34;;;;;;;80.03;29.23;;;2.60;99.90;;;;;;20816892;28;20121;-79
2023/03/03 04:34:35;;;;;;;71.45;27.27;;;2.60;99.90;;;;;;20801026;28;20427;-81
2023/03/03 04:44:36;;;;;;;76.55;26.77;;;2.70;99.90;;;;;;20813858;28;20060;-81
2023/03/03 04:54:38;;;;;;;72.93;26.95;;;2.70;99.90;;;;;;20816494;28;20056;-80
2023/03/03 05:04:39;;;;;;;62.47;24.58;;;2.80;99.90;;;;;;20831821;28;20029;-79
2023/03/03 05:14:40;;;;;;;73.10;24.27;;;2.80;99.90;;;;;;20834272;28;20548;-79
2023/03/03 05:24:41;;;;;;;72.30;26.58;;;3.00;99.90;;;;;;20842225;28;20048;-80
2023/03/03 05:34:42;;;;;;;66.28;25.40;;;2.80;99.90;;;;;;20849623;28;20033;-79
2023/03/03 05:44:43;;;;;;;63.10;24.35;;;2.80;99.90;;;;;;20849825;28;20065;-80
2023/03/03 05:54:44;;;;;;;69.82;25.42;;;3.00;99.90;;;;;;20835872;28;20037;-78
2023/03/03 06:04:44;;;;;;;66.40;25.67;;;3.00;99.90;;;;;;20828078;28;20369;-80
2023/03/03 06:14:45;;;;;;;71.50;25.67;;;3.00;99.90;;;;;;20834619;28;20033;-78
2023/03/03 06:24:46;;;;;;;70.97;26.23;;;2.80;99.90;;;;;;20796367;28;20037;-78
2023/03/03 06:34:47;;;;;;;80.25;27.83;;;2.80;99.90;;;;;;20776411;28;20176;-80
2023/03/03 06:44:47;;;;;;;75.15;28.75;;;2.80;99.90;;;;;;20740363;28;20040;-78
2023/03/03 06:54:49;;;;;;;77.80;27.42;;;2.70;99.90;;;;;;20757282;28;20112;-79
2023/03/03 07:04:53;;;;;;;69.20;27.13;;;2.80;99.90;;;;;;20815304;28;20095;-80
2023/03/03 07:15:25;;;;;;;62.67;24.50;;;3.00;99.90;;;;;;20834999;28;20045;-80
2023/03/03 07:25:30;;;;;;;69.55;26.25;;;3.30;99.90;;;;;;20833405;28;20112;-79
2023/03/03 07:35:43;;;;;;;81.47;27.95;;;3.40;99.90;;;;;;20833775;28;20029;-79
2023/03/03 07:45:43;;;;;;;66.57;27.85;;;3.50;99.90;;;;;;20832613;28;20030;-79
2023/03/03 07:55:45;;;;;;;71.45;27.75;;;3.70;99.90;;;;;;20833035;28;20602;-81
2023/03/03 08:05:50;;;;;;;73.03;27.63;;;4.00;99.90;;;;;;20834343;28;20033;-79
2023/03/03 08:16:16;;;;;;;96.35;34.92;;;4.10;99.90;;;;;;20829057;28;20039;-81
2023/03/03 08:26:18;;;;;;;75.45;26.10;;;4.00;99.90;;;;;;20830799;28;20103;-81
2023/03/03 08:36:19;;;;;;;74.22;26.98;;;4.20;99.90;;;;;;20828961;28;20095;-81
2023/03/03 08:46:20;;;;;;;75.85;27.45;;;4.50;99.90;;;;;;20830032;28;20049;-79
2023/03/03 08:56:21;;;;;;;;;;;4.90;99.90;;;;;;20828687;28;20033;-80
2023/03/03 09:06:22;;;;;;;66.53;27.07;;;5.10;99.90;;;;;;20810710;28;20372;-80
2023/03/03 09:16:23;;;;;;;65.78;25.50;;;5.30;99.90;;;;;;20809451;28;20322;-81
2023/03/03 09:26:46;;;;;;;71.33;25.97;;;6.20;99.90;;;;;;20826808;28;20424;-80
2023/03/03 09:36:48;;;;;;;78.57;28.30;;;7.30;99.90;;;;;;20826327;28;20655;-80
2023/03/03 09:47:13;;;;;;;70.15;26.08;;;7.00;99.90;;;;;;20826313;28;20026;-79
2023/03/03 09:57:22;;;;;;;62.97;25.40;;;7.00;99.90;;;;;;20827863;28;20029;-78
2023/03/03 10:07:40;;;;;;;66.35;27.05;;;7.50;99.90;;;;;;20820811;28;20116;-77
2023/03/03 10:18:11;;;;;;;60.50;25.88;;;7.70;99.90;;;;;;20850656;28;20029;-77
2023/03/03 10:28:40;;;;;;;60.83;24.08;;;9.70;99.90;;;;;;20847831;28;20497;-77
2023/03/03 10:39:16;;;;;;;56.83;24.23;;;10.40;99.90;;;;;;20847513;28;20511;-77
2023/03/03 10:49:20;;;;;;;57.03;24.90;;;11.20;99.90;;;;;;20822438;28;20144;-77
2023/03/03 10:59:41;;;;;;;60.08;27.83;;;9.90;99.90;;;;;;20820226;28;20041;-78
2023/03/03 11:10:06;;;;;;;67.90;26.80;;;8.40;99.90;;;;;;20838108;28;20048;-78
2023/03/03 11:20:42;;;;;;;62.80;26.48;;;8.70;99.90;;;;;;20835690;28;20103;-78
2023/03/03 11:30:53;;;;;;;64.07;26.65;;;9.40;99.90;;;;;;20770078;28;20034;-79
2023/03/03 11:41:07;;;;;;;55.30;25.63;;;12.20;99.90;;;;;;20835082;28;20029;-79
2023/03/03 11:51:27;;;;;;;57.53;26.10;;;13.20;99.90;;;;;;20818414;28;20104;-79
2023/03/03 12:01:47;;;;;;;53.08;25.08;;;11.90;99.90;;;;;;20819192;28;20033;-78
2023/03/03 12:11:56;;;;;;;60.53;26.67;;;12.60;99.90;;;;;;20823821;28;20033;-78
2023/03/03 12:22:15;;;;;;;55.58;25.13;;;12.40;99.90;;;;;;20832305;28;20036;-78
2023/03/03 12:32:39;;;;;;;67.38;27.95;;;12.50;99.90;;;;;;20832227;28;20030;-79
2023/03/03 12:42:52;;;;;;;52.75;25.58;;;14.20;99.90;;;;;;20831702;28;20117;-78
2023/03/03 12:53:14;;;;;;;62.85;25.98;;;13.20;99.90;;;;;;20830962;28;20037;-77
2023/03/03 13:03:36;;;;;;;46.95;24.05;;;14.20;99.90;;;;;;20830041;28;20417;-78
2023/03/03 13:13:56;;;;;;;55.33;25.52;;;14.10;99.90;;;;;;20830994;28;20717;-78
2023/03/03 13:24:05;;;;;;;53.38;24.17;;;13.20;99.90;;;;;;20742203;28;20085;-78
2023/03/03 13:34:23;;;;;;;50.50;23.83;;;14.10;99.90;;;;;;20745691;28;20096;-78
2023/03/03 13:44:24;;;;;;;54.00;25.63;;;13.60;99.90;;;;;;20755591;28;20041;-78
2023/03/03 13:55:09;;;;;;;60.13;25.00;;;12.10;99.90;;;;;;20745787;28;20030;-80
2023/03/03 14:05:19;;;;;;;51.15;23.33;;;11.50;99.90;;;;;;20762899;28;20042;-79
2023/03/03 14:15:37;;;;;;;53.22;25.73;;;11.90;99.90;;;;;;20760356;28;20488;-78
2023/03/03 14:25:56;;;;;;;52.88;23.52;;;11.40;99.90;;;;;;20840895;28;20230;-78
2023/03/03 14:35:57;;;;;;;53.65;24.02;;;11.50;99.90;;;;;;20839200;28;20029;-78
2023/03/03 14:46:39;;;;;;;53.13;23.67;;;10.80;99.90;;;;;;20821556;28;20041;-79
2023/03/03 14:57:03;;;;;;;59.40;28.45;;;10.80;99.90;;;;;;20838315;28;20480;-80
2023/03/03 15:07:32;;;;;;;66.05;28.67;;;10.10;99.90;;;;;;20819948;28;20122;-79
2023/03/03 15:17:36;;;;;;;67.03;28.45;;;9.40;99.90;;;;;;20837534;28;20033;-80
2023/03/03 15:27:44;;;;;;;75.72;31.38;;;9.60;99.90;;;;;;20839816;28;20101;-80
2023/03/03 15:37:48;;;;;;;80.65;32.25;;;9.40;99.90;;;;;;20838329;28;20033;-79
2023/03/03 15:48:15;;;;;;;73.68;29.75;;;9.10;99.90;;;;;;20819908;28;20029;-80
2023/03/03 15:58:37;;;;;;;85.55;32.20;;;8.90;99.90;;;;;;20836093;28;20038;-80
2023/03/03 16:08:59;;;;;;;81.32;33.08;;;8.90;99.90;;;;;;20831384;28;20054;-79
2023/03/03 16:19:23;;;;;;;70.10;29.23;;;8.80;99.90;;;;;;20860931;28;20178;-79
2023/03/03 16:29:49;;;;;;;70.68;30.63;;;8.60;99.90;;;;;;20780408;28;20545;-78
2023/03/03 16:39:55;;;;;;;75.13;31.23;;;8.40;99.90;;;;;;20749967;28;20034;-79
2023/03/03 16:50:15;;;;;;;81.72;31.63;;;7.90;99.90;;;;;;20818564;28;20041;-79
2023/03/03 17:00:20;;;;;;;78.63;31.75;;;7.60;99.90;;;;;;20816430;28;20084;-80
2023/03/03 17:10:31;;;;;;;77.63;30.27;;;7.40;99.90;;;;;;20811429;28;20489;-78
2023/03/03 17:20:49;;;;;;;71.43;30.70;;;7.10;99.90;;;;;;20826813;28;20038;-79
2023/03/03 17:31:11;;;;;;;74.03;29.27;;;7.00;99.90;;;;;;20826810;28;20484;-79
2023/03/03 17:41:40;;;;;;;82.45;30.67;;;6.90;99.90;;;;;;20809622;28;20034;-78
2023/03/03 17:52:08;;;;;;;79.55;31.40;;;7.00;99.90;;;;;;20827387;28;20021;-79
2023/03/03 18:02:29;;;;;;;78.13;30.63;;;6.80;99.90;;;;;;20808514;28;20049;-79
2023/03/03 18:12:32;;;;;;;81.80;31.60;;;6.70;99.90;;;;;;20824729;28;20040;-80
2023/03/03 18:22:50;;;;;;;71.55;29.52;;;6.40;99.90;;;;;;20883634;28;20021;-79
2023/03/03 18:33:00;;;;;;;80.57;30.80;;;6.40;99.90;;;;;;20846748;28;20025;-80
2023/03/03 18:43:38;;;;;;;76.28;30.52;;;6.30;99.90;;;;;;20842799;28;20127;-80
2023/03/03 18:54:06;;;;;;;78.78;30.80;;;6.00;99.90;;;;;;20838899;28;20174;-80
2023/03/03 19:04:17;;;;;;;78.90;29.88;;;5.50;99.90;;;;;;20916833;28;20419;-80
2023/03/03 19:14:28;;;;;;;91.87;30.93;;;5.20;99.90;;;;;;20922884;28;20035;-81
2023/03/03 19:24:32;;;;;;;73.07;27.93;;;4.80;99.90;;;;;;20860467;28;20612;-80
2023/03/03 19:35:08;;;;;;;72.18;29.65;;;4.50;99.90;;;;;;20823631;28;20349;-80
2023/03/03 19:45:35;;;;;;;73.05;29.13;;;4.30;99.90;;;;;;20837138;28;20069;-80
2023/03/03 19:56:09;;;;;;;86.15;31.02;;;3.70;99.90;;;;;;20837662;28;20029;-80
2023/03/03 20:06:33;;;;;;;86.57;31.88;;;3.30;99.90;;;;;;20846597;28;20037;-81
2023/03/03 20:16:52;;;;;;;84.43;30.17;;;2.90;99.90;;;;;;20858566;28;20044;-83
2023/03/03 20:27:04;;;;;;;91.50;32.47;;;2.40;99.90;;;;;;20856922;28;20039;-81
2023/03/03 20:37:32;;;;;;;90.60;34.53;;;2.20;99.90;;;;;;20817075;28;20029;-81
2023/03/03 20:47:45;;;;;;;88.43;32.17;;;2.20;99.90;;;;;;20803505;28;20022;-81
2023/03/03 20:57:51;;;;;;;53.00;19.60;;;2.10;99.90;;;;;;20796279;28;20029;-78
2023/03/03 21:08:01;;;;;;;87.63;33.65;;;2.30;99.90;;;;;;20815641;28;20039;-80
2023/03/03 21:18:20;;;;;;;101.35;35.88;;;2.30;99.90;;;;;;20828935;28;20103;-80
2023/03/03 21:28:21;;;;;;;87.32;33.97;;;1.90;99.90;;;;;;20831542;28;20056;-79
2023/03/03 21:38:33;;;;;;;109.32;38.47;;;1.80;99.90;;;;;;20828489;28;20030;-79
2023/03/03 21:48:34;;;;;;;113.32;41.05;;;1.50;99.90;;;;;;20810748;28;20496;-79
2023/03/03 21:58:36;;;;;;;109.28;39.67;;;1.30;99.90;;;;;;20828301;28;20048;-80
2023/03/03 22:08:37;;;;;;;103.20;38.58;;;1.30;99.90;;;;;;20856274;28;20029;-77
2023/03/03 22:18:38;;;;;;;91.35;34.45;;;1.10;99.90;;;;;;20853888;28;20033;-79
2023/03/03 22:28:39;;;;;;;99.18;36.88;;;0.90;99.90;;;;;;20847284;28;20029;-78
2023/03/03 22:38:40;;;;;;;98.97;36.75;;;0.80;99.90;;;;;;20835809;28;20135;-78
2023/03/03 22:48:41;;;;;;;93.28;33.35;;;0.60;99.90;;;;;;20813541;28;20378;-80
2023/03/03 22:58:41;;;;;;;95.90;31.98;;;0.80;99.90;;;;;;20754060;28;20030;-79
2023/03/03 23:08:45;;;;;;;102.03;36.03;;;0.90;99.90;;;;;;20785641;28;20033;-78
2023/03/03 23:18:46;;;;;;;101.53;36.13;;;0.90;99.90;;;;;;20839865;28;20037;-79
2023/03/03 23:28:47;;;;;;;89.00;32.83;;;1.10;99.90;;;;;;20837307;28;20030;-81
2023/03/03 23:38:47;;;;;;;90.13;31.45;;;1.40;99.90;;;;;;20835800;28;20431;-78
2023/03/03 23:48:48;;;;;;;76.80;29.80;;;1.50;99.90;;;;;;20833948;28;20025;-78
2023/03/03 23:58:49;;;;;;;83.47;27.83;;;1.40;99.90;;;;;;20817490;28;20041;-79
